Time;durP1;ratioP1;P1;durP2;ratioP2;P2;SDS_P1;SDS_P2;PMS_P1;PMS_P2;Temp;Humidity;BMP_temperature;BMP_pressure;BME280_temperature;BME280_humidity;BME280_pressure;Samples;Min_cycle;Max_cycle;Signal;HPM_P1;HPM_P2
2023/04/23 00:00:14;;;;;;;6.63;4.65;;;13.20;57.30;;;;;;5031849;28;20021;-62
2023/04/23 00:02:43;;;;;;;5.55;4.63;;;13.20;57.40;;;;;;5031090;28;20423;-62
2023/04/23 00:05:11;;;;;;;5.93;4.75;;;13.20;57.50;;;;;;5031504;28;20032;-62
2023/04/23 00:07:37;;;;;;;5.22;4.40;;;13.20;57.50;;;;;;5031187;28;20037;-64
2023/04/23 00:10:07;;;;;;;6.72;4.93;;;13.20;57.50;;;;;;5028428;28;20028;-65
2023/04/23 00:12:33;;;;;;;5.75;4.38;;;13.20;57.50;;;;;;5018250;28;20033;-64
2023/04/23 00:14:59;;;;;;;6.22;4.60;;;13.20;57.60;;;;;;5031120;28;20392;-65
2023/04/23 00:17:25;;;;;;;6.00;4.70;;;13.10;57.50;;;;;;5018109;28;20041;-58
2023/04/23 00:19:51;;;;;;;5.95;4.80;;;13.10;57.50;;;;;;5030928;28;20021;-58
2023/04/23 00:22:19;;;;;;;8.40;5.35;;;13.10;57.50;;;;;;5030180;28;20452;-60
2023/04/23 00:24:45;;;;;;;5.95;4.80;;;13.10;57.80;;;;;;5019326;28;20146;-60
2023/04/23 00:27:10;;;;;;;6.07;4.85;;;13.10;57.80;;;;;;5030953;28;20039;-61
2023/04/23 00:29:36;;;;;;;6.40;4.70;;;13.10;57.80;;;;;;5023042;28;20029;-61
2023/04/23 00:32:02;;;;;;;5.15;4.40;;;13.10;57.80;;;;;;5026566;28;20025;-62
2023/04/23 00:34:28;;;;;;;5.88;4.38;;;13.10;57.70;;;;;;5030410;28;20041;-62
2023/04/23 00:36:54;;;;;;;7.00;4.50;;;13.10;57.70;;;;;;5030789;28;20036;-57
2023/04/23 00:39:20;;;;;;;5.15;4.05;;;13.10;57.70;;;;;;5030277;28;20018;-58
2023/04/23 00:41:45;;;;;;;7.10;4.60;;;13.10;57.60;;;;;;5017021;28;20050;-63
2023/04/23 00:44:12;;;;;;;5.47;4.40;;;13.10;57.80;;;;;;5011348;28;20033;-62
2023/04/23 00:46:38;;;;;;;6.30;4.70;;;13.00;57.70;;;;;;5013740;28;20464;-63
2023/04/23 00:49:03;;;;;;;6.32;4.93;;;13.00;57.70;;;;;;5030836;28;20460;-63
2023/04/23 00:51:30;;;;;;;6.35;4.38;;;13.00;57.70;;;;;;5029838;28;20022;-62
2023/04/23 00:53:57;;;;;;;6.03;4.05;;;13.00;57.70;;;;;;5011594;28;20053;-62
2023/04/23 00:56:24;;;;;;;5.95;4.20;;;13.00;57.80;;;;;;5013382;28;20060;-60
2023/04/23 00:58:51;;;;;;;7.30;4.75;;;13.00;58.20;;;;;;5031022;28;20376;-60
2023/04/23 01:01:19;;;;;;;5.22;4.57;;;13.00;58.70;;;;;;5016197;28;20026;-57
2023/04/23 01:03:50;;;;;;;5.85;4.90;;;12.90;58.90;;;;;;5020539;28;20060;-57
2023/04/23 01:06:15;;;;;;;7.73;4.70;;;12.90;59.10;;;;;;5030070;28;20045;-56
2023/04/23 01:08:45;;;;;;;4.93;4.32;;;12.90;59.20;;;;;;5030766;28;20119;-53
2023/04/23 01:11:14;;;;;;;6.70;4.82;;;12.90;58.80;;;;;;5011591;28;20034;-60
2023/04/23 01:13:41;;;;;;;6.65;4.60;;;12.90;58.50;;;;;;5021850;28;20029;-60
2023/04/23 01:16:08;;;;;;;5.45;4.20;;;12.90;58.30;;;;;;5026153;28;20034;-59
2023/04/23 01:18:33;;;;;;;5.70;4.35;;;12.90;58.10;;;;;;5022005;28;20423;-59
2023/04/23 01:21:00;;;;;;;5.05;4.55;;;12.90;58.10;;;;;;5030301;28;20028;-60
2023/04/23 01:23:26;;;;;;;6.82;4.70;;;12.90;58.00;;;;;;5030254;28;20388;-61
2023/04/23 01:25:53;;;;;;;5.93;4.43;;;12.90;57.90;;;;;;5026391;28;20116;-60
2023/04/23 01:28:20;;;;;;;9.13;4.78;;;12.90;57.80;;;;;;5021694;28;20030;-61
2023/04/23 01:30:47;;;;;;;6.35;4.75;;;12.90;57.80;;;;;;5026260;28;20022;-54
2023/04/23 01:33:13;;;;;;;6.32;4.97;;;12.90;57.70;;;;;;5021613;28;20484;-58
2023/04/23 01:35:42;;;;;;;6.47;4.65;;;12.90;57.70;;;;;;5026751;28;20072;-59
2023/04/23 01:38:13;;;;;;;6.05;4.93;;;12.90;57.80;;;;;;5022659;28;20026;-60
2023/04/23 01:40:38;;;;;;;6.72;5.03;;;12.90;57.80;;;;;;5030326;28;20036;-52
2023/04/23 01:43:06;;;;;;;6.75;5.07;;;12.90;57.90;;;;;;5030398;28;20029;-56
2023/04/23 01:45:32;;;;;;;5.97;4.47;;;12.90;57.70;;;;;;5030052;28;20068;-60
2023/04/23 01:47:59;;;;;;;7.78;5.10;;;12.90;58.30;;;;;;5030158;28;20029;-59
2023/04/23 01:50:26;;;;;;;6.63;4.80;;;12.90;57.70;;;;;;5023631;28;20109;-57
2023/04/23 01:52:52;;;;;;;5.32;4.53;;;12.90;57.70;;;;;;5024037;28;20368;-54
2023/04/23 01:55:18;;;;;;;5.57;4.60;;;12.90;57.80;;;;;;5030084;28;20033;-59
2023/04/23 01:57:45;;;;;;;7.05;4.78;;;12.90;57.90;;;;;;5030058;28;20121;-56
2023/04/23 02:00:12;;;;;;;7.78;5.15;;;12.80;58.10;;;;;;5017197;28;20034;-60
2023/04/23 02:02:39;;;;;;;6.13;4.80;;;12.80;58.50;;;;;;5030118;28;20034;-59
2023/04/23 02:05:14;;;;;;;5.68;3.95;;;12.80;58.90;;;;;;5029978;28;20400;-60
2023/04/23 02:07:40;;;;;;;7.32;5.03;;;12.70;59.20;;;;;;5029621;28;20407;-58
2023/04/23 02:10:07;;;;;;;5.80;4.65;;;12.70;59.50;;;;;;5029912;28;20109;-60
2023/04/23 02:12:32;;;;;;;5.88;4.75;;;12.60;59.60;;;;;;5029604;28;20049;-59
2023/04/23 02:14:58;;;;;;;7.00;5.13;;;12.60;59.80;;;;;;5030113;28;20034;-59
2023/04/23 02:17:24;;;;;;;7.07;5.55;;;12.60;60.00;;;;;;5028998;28;20080;-61
2023/04/23 02:19:49;;;;;;;7.93;5.32;;;12.50;60.10;;;;;;5032680;28;20060;-61
2023/04/23 02:22:16;;;;;;;6.70;5.43;;;12.50;60.20;;;;;;5032792;28;20388;-62
2023/04/23 02:24:43;;;;;;;6.88;5.15;;;12.50;60.10;;;;;;5033681;28;20033;-63
2023/04/23 02:27:09;;;;;;;8.18;5.63;;;12.50;60.20;;;;;;5033092;28;20468;-58
2023/04/23 02:29:35;;;;;;;6.38;5.35;;;12.40;60.20;;;;;;5033405;28;20033;-57
2023/04/23 02:32:02;;;;;;;6.70;5.20;;;12.40;60.30;;;;;;5033424;28;20022;-57
2023/04/23 02:34:27;;;;;;;6.45;5.10;;;12.40;60.40;;;;;;5033282;28;20044;-57
2023/04/23 02:36:53;;;;;;;7.82;5.45;;;12.40;60.50;;;;;;5033176;28;20033;-64
2023/04/23 02:39:19;;;;;;;6.85;4.95;;;12.40;60.60;;;;;;5032482;28;20026;-65
2023/04/23 02:41:45;;;;;;;7.18;5.07;;;12.40;60.60;;;;;;5032367;28;20135;-60
2023/04/23 02:44:10;;;;;;;6.82;5.20;;;12.40;60.40;;;;;;5032276;28;20460;-61
2023/04/23 02:46:36;;;;;;;6.88;5.30;;;12.40;60.40;;;;;;5031817;28;20037;-61
2023/04/23 02:49:05;;;;;;;9.15;5.45;;;12.40;60.20;;;;;;5032992;28;20037;-60
2023/04/23 02:51:31;;;;;;;6.68;5.30;;;12.40;60.10;;;;;;5031408;28;20144;-63
2023/04/23 02:53:58;;;;;;;4.97;4.47;;;12.40;60.10;;;;;;5033131;28;20033;-63
2023/04/23 02:56:24;;;;;;;6.15;4.60;;;12.40;60.00;;;;;;5032010;28;20055;-65
2023/04/23 02:58:49;;;;;;;6.35;4.78;;;12.40;59.90;;;;;;5032514;28;20033;-65
2023/04/23 03:01:15;;;;;;;5.47;4.82;;;12.40;59.80;;;;;;5032182;28;20052;-64
2023/04/23 03:03:41;;;;;;;5.57;4.60;;;12.40;59.80;;;;;;5032492;28;20068;-64
2023/04/23 03:06:07;;;;;;;5.80;4.80;;;12.40;59.90;;;;;;5032446;28;20112;-65
2023/04/23 03:08:33;;;;;;;6.18;4.72;;;12.40;59.80;;;;;;5032222;28;20527;-64
2023/04/23 03:10:58;;;;;;;7.05;5.07;;;12.40;59.70;;;;;;5031933;28;20369;-64
2023/04/23 03:13:25;;;;;;;8.13;6.28;;;12.40;59.60;;;;;;5032398;28;20037;-64
2023/04/23 03:15:53;;;;;;;10.55;7.57;;;12.40;59.50;;;;;;5032680;28;20057;-64
2023/04/23 03:18:19;;;;;;;7.82;5.95;;;12.40;59.50;;;;;;5024551;28;20037;-64
2023/04/23 03:20:44;;;;;;;6.85;5.50;;;12.40;59.50;;;;;;5027357;28;20041;-65
2023/04/23 03:23:10;;;;;;;6.88;5.28;;;12.40;60.00;;;;;;5031865;28;20090;-64
2023/04/23 03:25:36;;;;;;;6.88;5.15;;;12.40;59.30;;;;;;5032072;28;20037;-65
2023/04/23 03:28:01;;;;;;;6.47;5.30;;;12.40;59.20;;;;;;5026405;28;20491;-64
2023/04/23 03:30:28;;;;;;;7.25;5.53;;;12.50;59.30;;;;;;5031247;28;20067;-64
2023/04/23 03:32:57;;;;;;;9.38;5.72;;;12.50;59.20;;;;;;5032260;28;20037;-64
2023/04/23 03:35:23;;;;;;;8.70;5.25;;;12.50;59.20;;;;;;5031930;28;20164;-64
2023/04/23 03:37:49;;;;;;;6.97;4.97;;;12.50;59.20;;;;;;5032391;28;20078;-65
2023/04/23 03:40:15;;;;;;;6.75;5.45;;;12.50;59.20;;;;;;5030148;28;20506;-65
2023/04/23 03:42:40;;;;;;;7.05;5.80;;;12.50;59.10;;;;;;5030169;28;20511;-65
2023/04/23 03:45:07;;;;;;;7.28;5.43;;;12.50;59.10;;;;;;5029832;28;20033;-64
2023/04/23 03:47:32;;;;;;;7.82;5.88;;;12.50;59.10;;;;;;5029952;28;20036;-64
2023/04/23 03:49:58;;;;;;;5.40;4.75;;;12.50;58.90;;;;;;5029374;28;20030;-65
2023/04/23 03:52:24;;;;;;;6.65;4.90;;;12.50;58.80;;;;;;5030203;28;20022;-64
2023/04/23 03:54:49;;;;;;;8.05;5.53;;;12.60;58.80;;;;;;5028441;28;20037;-65
2023/04/23 03:57:15;;;;;;;6.22;4.82;;;12.60;58.80;;;;;;5020795;28;20033;-64
2023/04/23 03:59:41;;;;;;;6.32;4.90;;;12.60;59.30;;;;;;5018635;28;20037;-65
2023/04/23 04:02:06;;;;;;;6.10;4.85;;;12.60;58.60;;;;;;5031982;28;20486;-63
2023/04/23 04:04:32;;;;;;;5.30;4.38;;;12.70;58.50;;;;;;5018852;28;20042;-63
2023/04/23 04:07:01;;;;;;;6.32;5.30;;;12.70;58.50;;;;;;5031642;28;20392;-60
2023/04/23 04:09:27;;;;;;;5.82;4.60;;;12.70;58.50;;;;;;5028446;28;22546;-60
2023/04/23 04:11:53;;;;;;;6.32;4.97;;;12.70;58.40;;;;;;5021675;28;20026;-60
2023/04/23 04:14:20;;;;;;;5.93;4.78;;;12.70;58.40;;;;;;5018586;28;20045;-60
2023/04/23 04:16:45;;;;;;;6.20;4.85;;;12.80;58.40;;;;;;5031458;28;20072;-60
2023/04/23 04:19:11;;;;;;;7.35;4.57;;;12.80;58.30;;;;;;5029373;28;20053;-60
2023/04/23 04:21:36;;;;;;;5.80;4.38;;;12.90;58.50;;;;;;5031094;28;20029;-60
2023/04/23 04:24:03;;;;;;;8.25;4.78;;;12.90;58.40;;;;;;5031049;28;20427;-58
2023/04/23 04:26:31;;;;;;;6.18;4.93;;;12.90;58.40;;;;;;5031020;28;20361;-62
2023/04/23 04:28:58;;;;;;;6.15;4.90;;;12.90;58.40;;;;;;5030738;28;20056;-61
2023/04/23 04:31:26;;;;;;;6.68;5.18;;;13.00;58.40;;;;;;5029631;28;20466;-61
2023/04/23 04:33:54;;;;;;;6.13;5.00;;;13.00;58.60;;;;;;5026381;28;20033;-62
2023/04/23 04:36:20;;;;;;;7.78;5.50;;;13.00;58.60;;;;;;5029722;28;20422;-65
2023/04/23 04:38:46;;;;;;;7.53;5.40;;;13.10;58.50;;;;;;5026229;28;20056;-65
2023/04/23 04:41:12;;;;;;;7.22;5.80;;;13.10;58.60;;;;;;5016397;28;20472;-60
2023/04/23 04:43:39;;;;;;;8.15;5.55;;;13.10;58.70;;;;;;5029344;28;20037;-57
2023/04/23 04:46:04;;;;;;;7.78;4.97;;;13.10;59.10;;;;;;5031018;28;20079;-60
2023/04/23 04:48:30;;;;;;;8.45;5.63;;;13.20;59.50;;;;;;5030559;28;20333;-60
2023/04/23 04:50:56;;;;;;;6.75;5.55;;;13.20;60.00;;;;;;5032567;28;20392;-60
2023/04/23 04:53:22;;;;;;;7.93;5.57;;;13.20;60.10;;;;;;5027609;28;20067;-61
2023/04/23 04:55:48;;;;;;;7.38;5.13;;;13.20;60.20;;;;;;5030738;28;20060;-60
2023/04/23 04:58:13;;;;;;;8.10;5.38;;;13.20;60.30;;;;;;5030479;28;20017;-60
2023/04/23 05:00:39;;;;;;;7.20;5.90;;;13.30;60.60;;;;;;5017790;28;20363;-57
2023/04/23 05:03:05;;;;;;;6.78;5.63;;;13.30;61.10;;;;;;5027269;28;20092;-59
2023/04/23 05:05:32;;;;;;;7.55;5.35;;;13.30;61.10;;;;;;5030497;28;20025;-63
2023/04/23 05:08:01;;;;;;;6.10;5.28;;;13.40;61.30;;;;;;5030212;28;20037;-62
2023/04/23 05:10:27;;;;;;;7.00;5.07;;;13.30;61.40;;;;;;5030496;28;20091;-62
2023/04/23 05:12:55;;;;;;;8.57;5.75;;;13.40;61.70;;;;;;5027791;28;20049;-61
2023/04/23 05:15:20;;;;;;;6.90;5.40;;;13.40;61.70;;;;;;5026637;28;20038;-61
2023/04/23 05:17:46;;;;;;;6.90;5.00;;;13.40;61.40;;;;;;5026148;28;20453;-62
2023/04/23 05:20:13;;;;;;;7.82;5.68;;;13.50;61.30;;;;;;5030744;28;20029;-60
2023/04/23 05:22:43;;;;;;;5.93;5.00;;;13.50;61.60;;;;;;5029960;28;20036;-60
2023/04/23 05:25:10;;;;;;;5.82;4.93;;;13.50;61.50;;;;;;5030327;28;20036;-60
2023/04/23 05:27:36;;;;;;;7.47;5.45;;;13.60;61.70;;;;;;5030060;28;20112;-60
2023/04/23 05:30:05;;;;;;;7.35;5.72;;;13.60;62.00;;;;;;5030683;28;20528;-60
2023/04/23 05:32:31;;;;;;;7.63;6.35;;;13.60;62.40;;;;;;5029823;28;20029;-60
2023/04/23 05:34:58;;;;;;;7.13;5.85;;;13.60;62.90;;;;;;5030405;28;20095;-59
2023/04/23 05:37:24;;;;;;;7.43;5.18;;;13.70;62.90;;;;;;5026625;28;20440;-64
2023/04/23 05:39:50;;;;;;;7.35;5.53;;;13.70;63.00;;;;;;5030407;28;20112;-65
2023/04/23 05:42:16;;;;;;;11.20;6.18;;;13.70;63.00;;;;;;5029990;28;20046;-61
2023/04/23 05:44:41;;;;;;;7.28;5.53;;;13.70;62.80;;;;;;5019359;28;20034;-60
2023/04/23 05:47:09;;;;;;;8.45;6.43;;;13.80;62.70;;;;;;5027954;28;20041;-58
2023/04/23 05:49:35;;;;;;;9.07;6.30;;;13.80;62.80;;;;;;5030054;28;20032;-58
2023/04/23 05:52:02;;;;;;;8.68;6.90;;;13.80;63.00;;;;;;5028217;28;20026;-59
2023/04/23 05:54:28;;;;;;;6.90;5.95;;;13.80;63.10;;;;;;5033780;28;20259;-59
2023/04/23 05:56:53;;;;;;;8.45;6.28;;;13.90;63.40;;;;;;5034004;28;20037;-57
2023/04/23 05:59:19;;;;;;;6.78;5.20;;;13.90;63.50;;;;;;5033661;28;20587;-57
2023/04/23 06:01:46;;;;;;;7.35;5.63;;;14.00;63.70;;;;;;5033891;28;20030;-59
2023/04/23 06:04:12;;;;;;;8.63;5.63;;;14.00;64.00;;;;;;5033022;28;20088;-59
2023/04/23 06:06:38;;;;;;;7.65;5.45;;;14.00;64.20;;;;;;5029383;28;20080;-60
2023/04/23 06:09:04;;;;;;;6.68;5.43;;;14.10;64.50;;;;;;5032914;28;20115;-60
2023/04/23 06:11:31;;;;;;;7.50;5.70;;;14.10;64.60;;;;;;5030270;28;20067;-63
2023/04/23 06:14:00;;;;;;;6.57;5.38;;;14.10;64.60;;;;;;5032020;28;20045;-63
2023/04/23 06:16:25;;;;;;;7.55;5.80;;;14.10;64.70;;;;;;5031336;28;20049;-59
2023/04/23 06:18:51;;;;;;;7.88;5.72;;;14.10;64.80;;;;;;5032653;28;20135;-59
2023/04/23 06:21:17;;;;;;;6.15;5.30;;;14.10;64.70;;;;;;5031515;28;20760;-58
2023/04/23 06:23:42;;;;;;;6.82;5.25;;;14.10;64.30;;;;;;5030495;28;20119;-56
2023/04/23 06:26:08;;;;;;;7.90;5.47;;;14.20;64.00;;;;;;5031898;28;20037;-58
2023/04/23 06:28:33;;;;;;;6.47;5.30;;;14.30;63.60;;;;;;5030309;28;20033;-57
2023/04/23 06:30:59;;;;;;;7.45;5.30;;;14.40;63.50;;;;;;5031331;28;20462;-55
2023/04/23 06:33:25;;;;;;;8.68;5.85;;;14.40;63.10;;;;;;5031075;28;20033;-54
2023/04/23 06:35:50;;;;;;;5.90;4.80;;;14.50;62.80;;;;;;5031746;28;20460;-54
2023/04/23 06:38:17;;;;;;;5.60;4.82;;;14.60;62.50;;;;;;5030956;28;20032;-57
2023/04/23 06:40:43;;;;;;;7.38;5.20;;;14.70;62.30;;;;;;5031608;28;20472;-55
2023/04/23 06:43:09;;;;;;;5.88;4.60;;;14.80;62.10;;;;;;5030109;28;20409;-57
2023/04/23 06:45:34;;;;;;;6.88;5.07;;;14.90;61.50;;;;;;5031080;28;20041;-57
2023/04/23 06:48:00;;;;;;;6.75;5.85;;;15.00;61.80;;;;;;5030231;28;20727;-55
2023/04/23 06:50:26;;;;;;;5.70;5.03;;;15.00;62.10;;;;;;5031268;28;20355;-60
2023/04/23 06:52:52;;;;;;;6.97;5.38;;;15.10;61.90;;;;;;5040429;28;20136;-58
2023/04/23 06:55:19;;;;;;;7.03;5.30;;;15.10;61.70;;;;;;5031716;28;20496;-59
2023/04/23 06:57:45;;;;;;;7.38;5.97;;;15.10;61.70;;;;;;5032332;28;20021;-59
2023/04/23 07:00:11;;;;;;;7.38;5.45;;;15.20;61.60;;;;;;5032924;28;20493;-57
2023/04/23 07:02:37;;;;;;;5.88;4.90;;;15.20;61.40;;;;;;5031403;28;20398;-57
2023/04/23 07:05:03;;;;;;;6.45;5.25;;;15.30;61.00;;;;;;5032060;28;20124;-55
2023/04/23 07:07:29;;;;;;;8.02;5.50;;;15.30;60.80;;;;;;5032856;28;20113;-61
2023/04/23 07:09:54;;;;;;;5.50;4.38;;;15.40;60.80;;;;;;5031271;28;20313;-61
2023/04/23 07:12:20;;;;;;;8.18;5.53;;;15.40;60.50;;;;;;5032587;28;20022;-59
2023/04/23 07:14:46;;;;;;;7.20;5.43;;;15.50;60.30;;;;;;5032289;28;20083;-61
2023/04/23 07:17:11;;;;;;;8.82;6.30;;;15.50;60.40;;;;;;5032170;28;20029;-60
2023/04/23 07:19:37;;;;;;;7.07;5.07;;;15.60;60.90;;;;;;5031654;28;20040;-61
2023/04/23 07:22:03;;;;;;;6.32;4.85;;;15.70;60.80;;;;;;5032445;28;20021;-60
2023/04/23 07:24:29;;;;;;;7.03;5.18;;;15.70;60.30;;;;;;5031721;28;20037;-61
2023/04/23 07:26:54;;;;;;;6.88;5.30;;;15.80;60.20;;;;;;5030471;28;20121;-60
2023/04/23 07:29:21;;;;;;;6.20;5.00;;;15.90;60.00;;;;;;5031790;28;20105;-60
2023/04/23 07:31:47;;;;;;;6.60;5.38;;;15.90;59.60;;;;;;5019745;28;20034;-60
2023/04/23 07:34:13;;;;;;;5.57;4.80;;;15.90;59.30;;;;;;5031916;28;20033;-59
2023/04/23 07:36:38;;;;;;;6.75;4.57;;;16.00;59.20;;;;;;5020092;28;20032;-60
2023/04/23 07:39:05;;;;;;;7.85;4.88;;;16.10;58.80;;;;;;5031522;28;20398;-61
2023/04/23 07:41:31;;;;;;;7.40;5.20;;;16.10;58.70;;;;;;5031881;28;20049;-60
2023/04/23 07:43:57;;;;;;;7.93;5.63;;;16.10;59.30;;;;;;5031390;28;20022;-62
2023/04/23 07:46:23;;;;;;;5.88;4.90;;;16.20;59.50;;;;;;5019569;28;20116;-62
2023/04/23 07:48:49;;;;;;;8.05;5.00;;;16.20;59.20;;;;;;5031576;28;20563;-63
2023/04/23 07:51:15;;;;;;;6.18;4.88;;;16.20;59.30;;;;;;5031504;28;20033;-62
2023/04/23 07:53:40;;;;;;;5.18;4.68;;;16.30;59.40;;;;;;5031471;28;20384;-63
2023/04/23 07:56:06;;;;;;;7.85;5.03;;;16.30;59.80;;;;;;5018942;28;20045;-63
2023/04/23 07:58:32;;;;;;;6.10;5.10;;;16.30;59.90;;;;;;5031555;28;20116;-63
2023/04/23 08:00:58;;;;;;;5.18;4.53;;;16.30;59.90;;;;;;5031241;28;20051;-63
2023/04/23 08:03:24;;;;;;;6.63;5.10;;;16.30;59.70;;;;;;5030591;28;20037;-62
2023/04/23 08:05:49;;;;;;;6.05;5.00;;;16.30;59.40;;;;;;5019618;28;20030;-63
2023/04/23 08:08:15;;;;;;;4.65;4.13;;;16.30;59.50;;;;;;5024864;28;20049;-62
2023/04/23 08:10:41;;;;;;;5.28;4.35;;;16.30;58.70;;;;;;5027701;28;20064;-64
2023/04/23 08:13:07;;;;;;;6.40;4.70;;;16.30;58.20;;;;;;5030432;28;20036;-64
2023/04/23 08:15:33;;;;;;;4.93;3.70;;;16.30;57.90;;;;;;5031314;28;20029;-63
2023/04/23 08:17:58;;;;;;;6.00;4.20;;;16.40;57.50;;;;;;5029509;28;20029;-64
2023/04/23 08:20:24;;;;;;;7.05;4.20;;;16.40;57.00;;;;;;5030965;28;20569;-65
2023/04/23 08:22:52;;;;;;;5.53;4.32;;;16.40;56.60;;;;;;5024496;28;20034;-65
2023/04/23 08:25:19;;;;;;;6.90;5.05;;;16.50;56.50;;;;;;5030750;28;20033;-60
2023/04/23 08:27:45;;;;;;;6.00;4.68;;;16.50;56.50;;;;;;5029981;28;20844;-61
2023/04/23 08:30:12;;;;;;;5.70;3.95;;;16.60;56.50;;;;;;5031156;28;20026;-61
2023/04/23 08:32:39;;;;;;;6.18;4.20;;;16.60;56.10;;;;;;5024186;28;20572;-66
2023/04/23 08:35:06;;;;;;;5.50;4.13;;;16.70;55.50;;;;;;5011805;28;20472;-63
2023/04/23 08:37:32;;;;;;;5.18;4.07;;;16.70;55.30;;;;;;5017955;28;20065;-64
2023/04/23 08:39:59;;;;;;;4.82;3.80;;;16.70;55.00;;;;;;5030937;28;20474;-64
2023/04/23 08:42:39;;;;;;;5.20;3.88;;;16.70;54.60;;;;;;5017663;28;20061;-65
2023/04/23 08:45:06;;;;;;;4.88;3.75;;;16.70;54.30;;;;;;5030706;28;20025;-65
2023/04/23 08:47:34;;;;;;;5.53;4.13;;;16.60;54.40;;;;;;5030007;28;20053;-64
2023/04/23 08:50:02;;;;;;;4.63;3.80;;;16.60;54.30;;;;;;5030721;28;20025;-65
2023/04/23 08:52:32;;;;;;;5.88;4.03;;;16.50;54.30;;;;;;5029766;28;20033;-58
2023/04/23 08:55:05;;;;;;;4.68;3.65;;;16.50;54.30;;;;;;5030111;28;20046;-58
2023/04/23 08:57:30;;;;;;;5.88;3.75;;;16.50;54.10;;;;;;5030129;28;20051;-57
2023/04/23 08:59:57;;;;;;;4.53;3.55;;;16.40;54.20;;;;;;5030403;28;20026;-57
2023/04/23 09:02:23;;;;;;;6.63;4.18;;;16.40;54.40;;;;;;5030234;28;20033;-62
2023/04/23 09:04:49;;;;;;;6.50;3.75;;;16.40;54.40;;;;;;5029769;28;20095;-63
2023/04/23 09:07:16;;;;;;;6.88;4.00;;;16.30;54.50;;;;;;5023114;28;20045;-62
2023/04/23 09:09:42;;;;;;;5.03;3.72;;;16.30;54.50;;;;;;5025878;28;20346;-62
2023/04/23 09:12:08;;;;;;;4.68;4.05;;;16.30;54.40;;;;;;5025864;28;20076;-62
2023/04/23 09:14:35;;;;;;;5.13;3.88;;;16.30;54.30;;;;;;5029062;28;20052;-63
2023/04/23 09:17:02;;;;;;;4.40;3.85;;;16.30;54.10;;;;;;5029917;28;20690;-63
2023/04/23 09:19:27;;;;;;;4.60;3.63;;;16.30;54.10;;;;;;5028869;28;20049;-66
2023/04/23 09:21:53;;;;;;;5.65;3.42;;;16.20;53.90;;;;;;5029398;28;20033;-62
2023/04/23 09:24:23;;;;;;;3.67;3.08;;;16.20;53.70;;;;;;5028259;28;20072;-63
2023/04/23 09:26:50;;;;;;;4.57;3.10;;;16.20;53.20;;;;;;5028331;28;20120;-58
2023/04/23 09:29:18;;;;;;;4.75;3.60;;;16.10;53.00;;;;;;5032042;28;20036;-58
2023/04/23 09:31:50;;;;;;;5.80;3.97;;;16.10;53.00;;;;;;5033285;28;20149;-62
2023/04/23 09:34:24;;;;;;;5.43;3.58;;;16.10;53.50;;;;;;5032438;28;20123;-62
2023/04/23 09:36:50;;;;;;;4.55;3.65;;;16.10;53.90;;;;;;5033865;28;20026;-60
2023/04/23 09:39:18;;;;;;;5.05;3.70;;;16.10;53.90;;;;;;5033668;28;20534;-61
2023/04/23 09:41:47;;;;;;;5.93;4.05;;;16.10;53.90;;;;;;5021211;28;20217;-61
2023/04/23 09:44:23;;;;;;;4.88;2.92;;;16.10;53.60;;;;;;5033529;28;20025;-61
2023/04/23 09:46:49;;;;;;;3.13;2.70;;;16.20;53.20;;;;;;5034296;28;20057;-61
2023/04/23 09:49:15;;;;;;;5.40;3.70;;;16.20;53.20;;;;;;5033756;28;20034;-62
2023/04/23 09:51:42;;;;;;;5.55;4.25;;;16.20;53.40;;;;;;5046575;28;20552;-62
2023/04/23 09:54:17;;;;;;;5.05;3.30;;;16.30;53.50;;;;;;5033917;28;20034;-62
2023/04/23 09:56:48;;;;;;;3.45;2.92;;;16.30;53.30;;;;;;5034064;28;20025;-62
2023/04/23 09:59:24;;;;;;;4.05;3.08;;;16.30;53.30;;;;;;5033699;28;20034;-62
2023/04/23 10:01:51;;;;;;;9.68;8.38;;;16.40;53.30;;;;;;5021298;28;20112;-58
2023/04/23 10:04:19;;;;;;;13.85;10.73;;;16.50;53.40;;;;;;5033724;28;20025;-59
2023/04/23 10:06:47;;;;;;;10.93;8.77;;;16.50;53.20;;;;;;5033373;28;20048;-63
2023/04/23 10:09:12;;;;;;;12.32;9.95;;;16.60;53.10;;;;;;5032880;28;20090;-62
2023/04/23 10:11:40;;;;;;;7.82;6.75;;;16.70;52.90;;;;;;5033966;28;20450;-58
2023/04/23 10:14:08;;;;;;;7.47;4.88;;;16.80;52.90;;;;;;5032997;28;20079;-58
2023/04/23 10:16:35;;;;;;;4.65;3.60;;;16.80;52.90;;;;;;5031240;28;20507;-58
2023/04/23 10:19:02;;;;;;;4.72;3.83;;;16.90;52.30;;;;;;5031223;28;20037;-58
2023/04/23 10:21:30;;;;;;;5.30;3.60;;;16.90;52.20;;;;;;5031684;28;20036;-64
2023/04/23 10:24:00;;;;;;;4.30;3.30;;;17.00;52.20;;;;;;5031560;28;20041;-64
2023/04/23 10:26:27;;;;;;;5.05;3.88;;;17.10;52.20;;;;;;5031832;28;20029;-63
2023/04/23 10:28:55;;;;;;;3.88;3.38;;;17.10;52.10;;;;;;5031503;28;20107;-63
2023/04/23 10:31:21;;;;;;;4.82;3.65;;;17.20;51.80;;;;;;5032891;28;20041;-64
2023/04/23 10:33:49;;;;;;;4.97;3.13;;;17.30;51.70;;;;;;5033587;28;20796;-64
2023/04/23 10:36:16;;;;;;;5.35;2.80;;;17.40;51.60;;;;;;5033302;28;20040;-63
2023/04/23 10:38:42;;;;;;;5.55;3.45;;;17.40;51.30;;;;;;5028252;28;20029;-63
2023/04/23 10:41:08;;;;;;;7.03;5.30;;;17.50;51.10;;;;;;5019554;28;20041;-62
2023/04/23 10:43:35;;;;;;;4.53;4.00;;;17.50;51.00;;;;;;5033113;28;20476;-63
2023/04/23 10:46:01;;;;;;;4.60;3.40;;;17.60;50.90;;;;;;5024206;28;20044;-62
2023/04/23 10:49:05;;;;;;;4.40;3.30;;;17.60;50.80;;;;;;5033343;28;20025;-63
2023/04/23 10:51:35;;;;;;;3.47;2.10;;;17.70;50.60;;;;;;5032321;28;20041;-63
2023/04/23 10:54:04;;;;;;;4.78;4.20;;;17.70;50.30;;;;;;5033359;28;20033;-62
2023/04/23 10:56:30;;;;;;;4.95;3.67;;;17.80;50.40;;;;;;5033004;28;20057;-63
2023/04/23 10:58:56;;;;;;;2.65;2.42;;;17.80;50.60;;;;;;5033085;28;20025;-63
2023/04/23 11:01:29;;;;;;;2.63;2.22;;;17.90;50.00;;;;;;5024644;28;20026;-62
2023/04/23 11:03:55;;;;;;;4.25;3.20;;;17.90;49.40;;;;;;5023919;28;20120;-63
2023/04/23 11:06:48;;;;;;;3.35;2.80;;;18.00;49.20;;;;;;5031881;28;20420;-63
2023/04/23 11:09:41;;;;;;;3.45;2.30;;;18.10;49.10;;;;;;5026124;28;20029;-63
2023/04/23 11:12:25;;;;;;;2.90;2.42;;;18.10;49.00;;;;;;5029184;28;20033;-62
2023/04/23 11:14:53;;;;;;;4.82;3.17;;;18.10;48.90;;;;;;5017299;28;20033;-62
2023/04/23 11:17:46;;;;;;;4.70;3.75;;;18.10;49.00;;;;;;5031979;28;20116;-62
2023/04/23 11:20:18;;;;;;;4.05;3.42;;;18.20;48.80;;;;;;5019214;28;20041;-62
2023/04/23 11:22:51;;;;;;;3.55;3.10;;;18.20;48.50;;;;;;5032371;28;20053;-62
2023/04/23 11:25:21;;;;;;;2.63;2.20;;;18.30;48.50;;;;;;5031792;28;20036;-62
2023/04/23 11:27:49;;;;;;;3.33;2.10;;;18.30;48.40;;;;;;5032472;28;20034;-62
2023/04/23 11:30:19;;;;;;;2.00;1.80;;;18.30;48.10;;;;;;5031702;28;20033;-62
2023/04/23 11:32:49;;;;;;;1.30;1.30;;;18.40;47.50;;;;;;5020441;28;20037;-62
2023/04/23 11:35:20;;;;;;;2.17;1.90;;;18.30;47.00;;;;;;5031610;28;20502;-62
2023/04/23 11:37:47;;;;;;;2.05;1.60;;;18.30;46.80;;;;;;5032674;28;20037;-62
2023/04/23 11:40:18;;;;;;;1.75;1.65;;;18.30;46.60;;;;;;5031494;28;20503;-62
2023/04/23 11:42:53;;;;;;;2.42;2.13;;;18.20;46.50;;;;;;5030744;28;20400;-62
2023/04/23 11:45:24;;;;;;;4.38;2.83;;;18.20;46.50;;;;;;5027920;28;20026;-63
2023/04/23 11:47:54;;;;;;;;;;;18.10;46.40;;;;;;5014093;28;20034;-62
2023/04/23 11:50:24;;;;;;;3.45;2.03;;;18.10;46.70;;;;;;5019384;28;19909;-61
2023/04/23 11:52:51;;;;;;;2.95;2.10;;;18.10;46.90;;;;;;5020269;28;20117;-61
2023/04/23 11:55:18;;;;;;;2.20;2.00;;;18.00;46.60;;;;;;5031664;28;20087;-62
2023/04/23 11:57:45;;;;;;;2.33;2.00;;;18.00;46.60;;;;;;5031816;28;20144;-62
2023/04/23 12:00:16;;;;;;;2.33;1.75;;;17.90;46.30;;;;;;5031537;28;20067;-62
2023/04/23 12:02:54;;;;;;;2.00;1.90;;;17.90;46.20;;;;;;5030148;28;20095;-62
2023/04/23 12:05:29;;;;;;;2.05;1.83;;;17.80;46.40;;;;;;5019946;28;20025;-64
2023/04/23 12:08:08;;;;;;;2.15;1.88;;;17.80;46.50;;;;;;5021817;28;20026;-64
2023/04/23 12:10:57;;;;;;;2.70;2.15;;;17.80;46.70;;;;;;5027788;28;20040;-59
2023/04/23 12:13:26;;;;;;;3.00;2.30;;;17.70;46.90;;;;;;5019661;28;20033;-57
2023/04/23 12:15:56;;;;;;;3.22;2.50;;;17.70;47.10;;;;;;5029986;28;20040;-63
2023/04/23 12:18:43;;;;;;;3.00;2.33;;;17.70;47.00;;;;;;5030606;28;20364;-62
2023/04/23 12:21:10;;;;;;;3.00;2.60;;;17.80;47.10;;;;;;5017854;28;20139;-64
2023/04/23 12:23:38;;;;;;;4.05;2.92;;;17.80;46.80;;;;;;5031050;28;20083;-64
2023/04/23 12:26:03;;;;;;;3.45;2.50;;;17.80;46.80;;;;;;5030551;28;20555;-63
2023/04/23 12:28:30;;;;;;;2.67;2.03;;;17.90;46.60;;;;;;5030773;28;20057;-63
2023/04/23 12:31:00;;;;;;;3.83;2.08;;;17.90;46.50;;;;;;5031334;28;20029;-64
2023/04/23 12:33:29;;;;;;;2.77;2.10;;;17.90;46.40;;;;;;5030379;28;20025;-64
2023/04/23 12:35:56;;;;;;;2.65;2.38;;;17.90;46.30;;;;;;5031146;28;20263;-58
2023/04/23 12:38:26;;;;;;;3.08;2.70;;;18.00;46.30;;;;;;5024956;28;20471;-58
2023/04/23 12:40:54;;;;;;;3.08;2.10;;;18.00;46.40;;;;;;5026169;28;20045;-63
2023/04/23 12:43:20;;;;;;;2.30;2.10;;;18.00;46.30;;;;;;5029289;28;20025;-63
2023/04/23 12:45:46;;;;;;;3.70;2.47;;;18.00;46.10;;;;;;5030144;28;20356;-61
2023/04/23 12:48:12;;;;;;;2.30;2.10;;;18.10;46.00;;;;;;5029170;28;20032;-62